sensor_id;sensor_type;location;lat;lon;timestamp;temperature;humidity
31307;DHT22;17935;51.120;13.132;2024-01-16T00:33:09;0.50;99.90
31307;DHT22;17935;51.120;13.132;2024-01-16T00:35:40;0.50;99.90
31307;DHT22;17935;51.120;13.132;2024-01-16T00:38:09;0.60;99.90
31307;DHT22;17935;51.120;13.132;2024-01-16T00:40:45;0.50;99.90
31307;DHT22;17935;51.120;13.132;2024-01-16T00:43:11;0.50;99.90
31307;DHT22;17935;51.120;13.132;2024-01-16T00:45:38;0.50;99.90
31307;DHT22;17935;51.120;13.132;2024-01-16T00:48:04;0.50;99.90
31307;DHT22;17935;51.120;13.132;2024-01-16T00:50:30;0.50;99.90
31307;DHT22;17935;51.120;13.132;2024-01-16T00:52:56;0.50;99.90
31307;DHT22;17935;51.120;13.132;2024-01-16T00:55:22;0.50;99.90
31307;DHT22;17935;51.120;13.132;2024-01-16T00:57:48;0.50;99.90
31307;DHT22;17935;51.120;13.132;2024-01-16T01:00:13;0.50;99.90
31307;DHT22;17935;51.120;13.132;2024-01-16T01:02:42;0.50;99.90
31307;DHT22;17935;51.120;13.132;2024-01-16T01:05:11;0.60;99.90
31307;DHT22;17935;51.120;13.132;2024-01-16T01:07:39;0.60;99.90
31307;DHT22;17935;51.120;13.132;2024-01-16T01:10:08;0.60;99.90
31307;DHT22;17935;51.120;13.132;2024-01-16T01:12:36;0.60;99.90
31307;DHT22;17935;51.120;13.132;2024-01-16T01:15:04;0.60;99.90
31307;DHT22;17935;51.120;13.132;2024-01-16T01:17:30;0.60;99.90
31307;DHT22;17935;51.120;13.132;2024-01-16T01:19:56;0.60;99.90
31307;DHT22;17935;51.120;13.132;2024-01-16T01:22:21;0.50;99.90
31307;DHT22;17935;51.120;13.132;2024-01-16T01:24:47;0.50;99.90
31307;DHT22;17935;51.120;13.132;2024-01-16T01:27:15;0.60;99.90
31307;DHT22;17935;51.120;13.132;2024-01-16T01:29:41;0.50;99.90
31307;DHT22;17935;51.120;13.132;2024-01-16T01:32:06;0.50;99.90
31307;DHT22;17935;51.120;13.132;2024-01-16T01:34:34;0.60;99.90
31307;DHT22;17935;51.120;13.132;2024-01-16T01:37:06;0.60;99.90
31307;DHT22;17935;51.120;13.132;2024-01-16T01:39:31;0.60;99.90
31307;DHT22;17935;51.120;13.132;2024-01-16T01:41:57;0.60;99.90
31307;DHT22;17935;51.120;13.132;2024-01-16T01:44:23;0.50;99.90
31307;DHT22;17935;51.120;13.132;2024-01-16T01:46:50;0.50;99.90
31307;DHT22;17935;51.120;13.132;2024-01-16T01:49:16;0.50;99.90
31307;DHT22;17935;51.120;13.132;2024-01-16T01:51:41;0.50;99.90
31307;DHT22;17935;51.120;13.132;2024-01-16T01:54:07;0.50;99.90
31307;DHT22;17935;51.120;13.132;2024-01-16T01:56:35;0.60;99.90
31307;DHT22;17935;51.120;13.132;2024-01-16T01:59:01;0.60;99.90
31307;DHT22;17935;51.120;13.132;2024-01-16T02:01:30;0.60;99.90
31307;DHT22;17935;51.120;13.132;2024-01-16T02:04:03;0.60;99.90
31307;DHT22;17935;51.120;13.132;2024-01-16T02:06:34;0.60;99.90
31307;DHT22;17935;51.120;13.132;2024-01-16T02:09:03;0.60;99.90
31307;DHT22;17935;51.120;13.132;2024-01-16T02:11:32;0.60;99.90
31307;DHT22;17935;51.120;13.132;2024-01-16T02:13:57;0.60;99.90
31307;DHT22;17935;51.120;13.132;2024-01-16T02:16:23;0.60;99.90
31307;DHT22;17935;51.120;13.132;2024-01-16T02:18:49;0.60;99.90
31307;DHT22;17935;51.120;13.132;2024-01-16T02:21:18;0.60;99.90
31307;DHT22;17935;51.120;13.132;2024-01-16T02:23:44;0.60;99.90
31307;DHT22;17935;51.120;13.132;2024-01-16T02:26:18;0.60;99.90
31307;DHT22;17935;51.120;13.132;2024-01-16T02:28:44;0.50;99.90
31307;DHT22;17935;51.120;13.132;2024-01-16T02:31:31;0.50;99.90
31307;DHT22;17935;51.120;13.132;2024-01-16T02:33:56;0.60;99.90
31307;DHT22;17935;51.120;13.132;2024-01-16T02:36:23;0.60;99.90
31307;DHT22;17935;51.120;13.132;2024-01-16T02:38:51;0.60;99.90
31307;DHT22;17935;51.120;13.132;2024-01-16T02:41:17;0.60;99.90
31307;DHT22;17935;51.120;13.132;2024-01-16T02:43:43;0.60;99.90
31307;DHT22;17935;51.120;13.132;2024-01-16T02:46:08;0.60;99.90
31307;DHT22;17935;51.120;13.132;2024-01-16T02:48:36;0.60;99.90
31307;DHT22;17935;51.120;13.132;2024-01-16T02:51:08;0.60;99.90
31307;DHT22;17935;51.120;13.132;2024-01-16T02:53:33;0.60;99.90
31307;DHT22;17935;51.120;13.132;2024-01-16T02:55:59;0.50;99.90
31307;DHT22;17935;51.120;13.132;2024-01-16T02:58:28;0.50;99.90
31307;DHT22;17935;51.120;13.132;2024-01-16T03:00:54;0.60;99.90
31307;DHT22;17935;51.120;13.132;2024-01-16T03:03:22;0.60;99.90
31307;DHT22;17935;51.120;13.132;2024-01-16T03:05:51;0.60;99.90
31307;DHT22;17935;51.120;13.132;2024-01-16T03:08:17;0.60;99.90
31307;DHT22;17935;51.120;13.132;2024-01-16T03:11:06;0.60;99.90
31307;DHT22;17935;51.120;13.132;2024-01-16T03:13:34;0.60;99.90
31307;DHT22;17935;51.120;13.132;2024-01-16T03:16:06;0.60;99.90
31307;DHT22;17935;51.120;13.132;2024-01-16T03:18:36;0.60;99.90
31307;DHT22;17935;51.120;13.132;2024-01-16T03:21:05;0.60;99.90
31307;DHT22;17935;51.120;13.132;2024-01-16T03:23:39;0.60;99.90
31307;DHT22;17935;51.120;13.132;2024-01-16T03:26:11;0.60;99.90
31307;DHT22;17935;51.120;13.132;2024-01-16T03:28:39;0.60;99.90
31307;DHT22;17935;51.120;13.132;2024-01-16T03:31:05;0.60;99.90
31307;DHT22;17935;51.120;13.132;2024-01-16T03:33:33;0.60;99.90
31307;DHT22;17935;51.120;13.132;2024-01-16T03:36:00;0.60;99.90
31307;DHT22;17935;51.120;13.132;2024-01-16T03:38:31;0.60;99.90
31307;DHT22;17935;51.120;13.132;2024-01-16T03:40:59;0.60;99.90
31307;DHT22;17935;51.120;13.132;2024-01-16T03:43:32;0.60;99.90
31307;DHT22;17935;51.120;13.132;2024-01-16T03:46:01;0.60;99.90
31307;DHT22;17935;51.120;13.132;2024-01-16T03:48:34;0.60;99.90
31307;DHT22;17935;51.120;13.132;2024-01-16T03:51:11;0.60;99.90
31307;DHT22;17935;51.120;13.132;2024-01-16T03:53:41;0.60;99.90
31307;DHT22;17935;51.120;13.132;2024-01-16T03:56:09;0.60;99.90
31307;DHT22;17935;51.120;13.132;2024-01-16T03:58:35;0.60;99.90
31307;DHT22;17935;51.120;13.132;2024-01-16T04:01:04;0.60;99.90
31307;DHT22;17935;51.120;13.132;2024-01-16T04:03:34;0.60;99.90
31307;DHT22;17935;51.120;13.132;2024-01-16T04:06:17;0.60;99.90
31307;DHT22;17935;51.120;13.132;2024-01-16T04:08:56;0.60;99.90
31307;DHT22;17935;51.120;13.132;2024-01-16T04:11:24;0.60;99.90
31307;DHT22;17935;51.120;13.132;2024-01-16T04:13:55;0.60;99.90
31307;DHT22;17935;51.120;13.132;2024-01-16T04:16:40;0.60;99.90
31307;DHT22;17935;51.120;13.132;2024-01-16T04:19:06;0.60;99.90
31307;DHT22;17935;51.120;13.132;2024-01-16T04:21:38;0.60;99.90
31307;DHT22;17935;51.120;13.132;2024-01-16T04:24:10;0.60;99.90
31307;DHT22;17935;51.120;13.132;2024-01-16T04:26:38;0.60;99.90
31307;DHT22;17935;51.120;13.132;2024-01-16T04:29:04;0.60;99.90
31307;DHT22;17935;51.120;13.132;2024-01-16T04:31:30;0.60;99.90
31307;DHT22;17935;51.120;13.132;2024-01-16T04:33:58;0.60;99.90
31307;DHT22;17935;51.120;13.132;2024-01-16T04:36:24;0.60;99.90
31307;DHT22;17935;51.120;13.132;2024-01-16T04:38:50;0.60;99.90
31307;DHT22;17935;51.120;13.132;2024-01-16T04:41:17;0.60;99.90
31307;DHT22;17935;51.120;13.132;2024-01-16T04:43:48;0.60;99.90
31307;DHT22;17935;51.120;13.132;2024-01-16T04:48:48;0.60;99.90
31307;DHT22;17935;51.120;13.132;2024-01-16T04:51:15;0.60;99.90
31307;DHT22;17935;51.120;13.132;2024-01-16T04:53:40;0.50;99.90
31307;DHT22;17935;51.120;13.132;2024-01-16T04:56:06;0.60;99.90
31307;DHT22;17935;51.120;13.132;2024-01-16T04:58:31;0.50;99.90
31307;DHT22;17935;51.120;13.132;2024-01-16T05:00:59;0.50;99.90
31307;DHT22;17935;51.120;13.132;2024-01-16T05:03:25;0.50;99.90
31307;DHT22;17935;51.120;13.132;2024-01-16T05:05:51;0.50;99.90
31307;DHT22;17935;51.120;13.132;2024-01-16T05:08:21;0.50;99.90
31307;DHT22;17935;51.120;13.132;2024-01-16T05:10:54;0.50;99.90
31307;DHT22;17935;51.120;13.132;2024-01-16T05:13:23;0.50;99.90
31307;DHT22;17935;51.120;13.132;2024-01-16T05:15:56;0.50;99.90
31307;DHT22;17935;51.120;13.132;2024-01-16T05:18:22;0.50;99.90
31307;DHT22;17935;51.120;13.132;2024-01-16T05:20:47;0.50;99.90
31307;DHT22;17935;51.120;13.132;2024-01-16T05:23:13;0.50;99.90
31307;DHT22;17935;51.120;13.132;2024-01-16T05:25:38;0.50;99.90
31307;DHT22;17935;51.120;13.132;2024-01-16T05:28:04;0.50;99.90
31307;DHT22;17935;51.120;13.132;2024-01-16T05:30:30;0.50;99.90
31307;DHT22;17935;51.120;13.132;2024-01-16T05:32:55;0.50;99.90
31307;DHT22;17935;51.120;13.132;2024-01-16T05:35:21;0.50;99.90
31307;DHT22;17935;51.120;13.132;2024-01-16T05:37:49;0.50;99.90
31307;DHT22;17935;51.120;13.132;2024-01-16T05:40:15;0.50;99.90
31307;DHT22;17935;51.120;13.132;2024-01-16T05:45:21;0.50;99.90
31307;DHT22;17935;51.120;13.132;2024-01-16T05:47:48;0.50;99.90
31307;DHT22;17935;51.120;13.132;2024-01-16T05:50:17;0.50;99.90
31307;DHT22;17935;51.120;13.132;2024-01-16T05:53:00;0.50;99.90
31307;DHT22;17935;51.120;13.132;2024-01-16T05:55:29;0.50;99.90
31307;DHT22;17935;51.120;13.132;2024-01-16T05:58:10;0.50;99.90
31307;DHT22;17935;51.120;13.132;2024-01-16T06:00:43;0.50;99.90
31307;DHT22;17935;51.120;13.132;2024-01-16T06:03:42;0.50;99.90
31307;DHT22;17935;51.120;13.132;2024-01-16T06:06:24;0.50;99.90
31307;DHT22;17935;51.120;13.132;2024-01-16T06:08:50;0.50;99.90
31307;DHT22;17935;51.120;13.132;2024-01-16T06:11:16;0.50;99.90
31307;DHT22;17935;51.120;13.132;2024-01-16T06:13:54;0.50;99.90
31307;DHT22;17935;51.120;13.132;2024-01-16T06:16:22;0.40;99.90
31307;DHT22;17935;51.120;13.132;2024-01-16T06:18:48;0.40;99.90
31307;DHT22;17935;51.120;13.132;2024-01-16T06:21:29;0.40;99.90
31307;DHT22;17935;51.120;13.132;2024-01-16T06:23:54;0.40;99.90
31307;DHT22;17935;51.120;13.132;2024-01-16T06:26:20;0.40;99.90
31307;DHT22;17935;51.120;13.132;2024-01-16T06:28:54;0.40;99.90
31307;DHT22;17935;51.120;13.132;2024-01-16T06:31:23;0.40;99.90
31307;DHT22;17935;51.120;13.132;2024-01-16T06:33:56;0.30;99.90
31307;DHT22;17935;51.120;13.132;2024-01-16T06:36:22;0.40;99.90
31307;DHT22;17935;51.120;13.132;2024-01-16T06:38:54;0.40;99.90
31307;DHT22;17935;51.120;13.132;2024-01-16T06:41:22;0.40;99.90
31307;DHT22;17935;51.120;13.132;2024-01-16T06:43:47;0.30;99.90
31307;DHT22;17935;51.120;13.132;2024-01-16T06:56:38;0.30;99.90
31307;DHT22;17935;51.120;13.132;2024-01-16T06:59:03;0.30;99.90
31307;DHT22;17935;51.120;13.132;2024-01-16T07:17:04;0.10;99.90
31307;DHT22;17935;51.120;13.132;2024-01-16T07:19:32;0.10;99.90
31307;DHT22;17935;51.120;13.132;2024-01-16T07:21:58;0.20;99.90
31307;DHT22;17935;51.120;13.132;2024-01-16T07:24:23;0.20;99.90
31307;DHT22;17935;51.120;13.132;2024-01-16T07:44:51;0.20;99.90
31307;DHT22;17935;51.120;13.132;2024-01-16T07:47:17;0.30;99.90
31307;DHT22;17935;51.120;13.132;2024-01-16T07:49:43;0.20;99.90
31307;DHT22;17935;51.120;13.132;2024-01-16T07:52:09;0.20;99.90
31307;DHT22;17935;51.120;13.132;2024-01-16T07:54:36;0.30;99.90
31307;DHT22;17935;51.120;13.132;2024-01-16T07:57:01;0.20;99.90
31307;DHT22;17935;51.120;13.132;2024-01-16T07:59:27;0.20;99.90
31307;DHT22;17935;51.120;13.132;2024-01-16T08:01:54;0.20;99.90
31307;DHT22;17935;51.120;13.132;2024-01-16T08:04:19;0.20;99.90
31307;DHT22;17935;51.120;13.132;2024-01-16T08:06:45;0.20;99.90
31307;DHT22;17935;51.120;13.132;2024-01-16T08:09:11;0.10;99.90
31307;DHT22;17935;51.120;13.132;2024-01-16T08:11:37;0.10;99.90
31307;DHT22;17935;51.120;13.132;2024-01-16T08:14:04;0.10;99.90
31307;DHT22;17935;51.120;13.132;2024-01-16T08:16:30;0.10;99.90
31307;DHT22;17935;51.120;13.132;2024-01-16T08:18:56;0.20;99.90
31307;DHT22;17935;51.120;13.132;2024-01-16T08:21:27;0.30;99.90
31307;DHT22;17935;51.120;13.132;2024-01-16T08:24:14;0.50;99.90
31307;DHT22;17935;51.120;13.132;2024-01-16T08:26:39;0.50;99.90
31307;DHT22;17935;51.120;13.132;2024-01-16T08:29:08;0.60;99.90
31307;DHT22;17935;51.120;13.132;2024-01-16T08:31:42;0.90;99.90
31307;DHT22;17935;51.120;13.132;2024-01-16T08:37:09;1.30;99.90
31307;DHT22;17935;51.120;13.132;2024-01-16T08:39:40;1.20;99.90
31307;DHT22;17935;51.120;13.132;2024-01-16T08:42:05;1.20;99.90
31307;DHT22;17935;51.120;13.132;2024-01-16T08:44:40;1.10;99.90
31307;DHT22;17935;51.120;13.132;2024-01-16T08:47:05;1.00;99.90
31307;DHT22;17935;51.120;13.132;2024-01-16T08:49:39;1.00;99.90
31307;DHT22;17935;51.120;13.132;2024-01-16T08:52:15;1.00;99.90
31307;DHT22;17935;51.120;13.132;2024-01-16T08:54:41;1.00;99.90
31307;DHT22;17935;51.120;13.132;2024-01-16T08:57:15;0.90;99.90
31307;DHT22;17935;51.120;13.132;2024-01-16T08:59:41;0.90;99.90
31307;DHT22;17935;51.120;13.132;2024-01-16T09:02:13;0.90;99.90
31307;DHT22;17935;51.120;13.132;2024-01-16T09:04:59;0.90;99.90
31307;DHT22;17935;51.120;13.132;2024-01-16T09:07:24;1.20;99.90
31307;DHT22;17935;51.120;13.132;2024-01-16T09:09:50;1.50;99.90
31307;DHT22;17935;51.120;13.132;2024-01-16T09:25:11;3.60;99.90
31307;DHT22;17935;51.120;13.132;2024-01-16T09:27:48;3.90;99.90
31307;DHT22;17935;51.120;13.132;2024-01-16T09:30:21;4.20;99.90
31307;DHT22;17935;51.120;13.132;2024-01-16T09:32:54;4.60;99.90
31307;DHT22;17935;51.120;13.132;2024-01-16T09:35:26;5.20;99.90
31307;DHT22;17935;51.120;13.132;2024-01-16T09:38:00;5.80;93.50
31307;DHT22;17935;51.120;13.132;2024-01-16T09:40:33;6.30;92.60
31307;DHT22;17935;51.120;13.132;2024-01-16T09:43:00;6.80;92.50
31307;DHT22;17935;51.120;13.132;2024-01-16T09:45:26;7.50;91.30
31307;DHT22;17935;51.120;13.132;2024-01-16T09:47:52;7.60;82.90
31307;DHT22;17935;51.120;13.132;2024-01-16T09:50:18;7.60;85.60
31307;DHT22;17935;51.120;13.132;2024-01-16T09:52:47;7.70;82.90
31307;DHT22;17935;51.120;13.132;2024-01-16T09:55:13;7.60;85.20
31307;DHT22;17935;51.120;13.132;2024-01-16T09:57:39;7.90;79.00
31307;DHT22;17935;51.120;13.132;2024-01-16T10:00:10;8.30;79.30
31307;DHT22;17935;51.120;13.132;2024-01-16T10:02:40;8.20;78.80
31307;DHT22;17935;51.120;13.132;2024-01-16T10:05:06;8.40;79.50
31307;DHT22;17935;51.120;13.132;2024-01-16T10:07:34;8.40;76.90
31307;DHT22;17935;51.120;13.132;2024-01-16T10:10:04;8.10;75.50
31307;DHT22;17935;51.120;13.132;2024-01-16T10:12:30;8.00;74.30
31307;DHT22;17935;51.120;13.132;2024-01-16T10:14:56;7.70;75.70
31307;DHT22;17935;51.120;13.132;2024-01-16T10:17:21;7.50;75.10
31307;DHT22;17935;51.120;13.132;2024-01-16T10:19:48;7.10;75.40
31307;DHT22;17935;51.120;13.132;2024-01-16T10:22:19;6.80;76.40
31307;DHT22;17935;51.120;13.132;2024-01-16T10:24:44;6.40;77.20
31307;DHT22;17935;51.120;13.132;2024-01-16T10:27:10;6.10;77.80
31307;DHT22;17935;51.120;13.132;2024-01-16T10:29:36;5.70;78.90
31307;DHT22;17935;51.120;13.132;2024-01-16T10:32:01;5.40;80.30
31307;DHT22;17935;51.120;13.132;2024-01-16T10:34:27;5.00;83.20
31307;DHT22;17935;51.120;13.132;2024-01-16T10:36:58;4.80;82.90
31307;DHT22;17935;51.120;13.132;2024-01-16T10:39:24;4.60;82.30
31307;DHT22;17935;51.120;13.132;2024-01-16T10:41:56;4.60;83.40
31307;DHT22;17935;51.120;13.132;2024-01-16T10:44:22;4.50;83.30
31307;DHT22;17935;51.120;13.132;2024-01-16T10:46:47;4.60;83.40
31307;DHT22;17935;51.120;13.132;2024-01-16T10:49:13;4.80;83.10
31307;DHT22;17935;51.120;13.132;2024-01-16T10:51:38;5.00;83.00
31307;DHT22;17935;51.120;13.132;2024-01-16T10:54:06;5.20;81.80
31307;DHT22;17935;51.120;13.132;2024-01-16T10:56:36;5.10;81.80
31307;DHT22;17935;51.120;13.132;2024-01-16T11:01:33;5.10;82.40
31307;DHT22;17935;51.120;13.132;2024-01-16T11:03:59;5.20;81.60
31307;DHT22;17935;51.120;13.132;2024-01-16T11:06:26;5.10;81.00
31307;DHT22;17935;51.120;13.132;2024-01-16T11:08:52;5.10;81.70
31307;DHT22;17935;51.120;13.132;2024-01-16T11:11:17;5.10;81.60
31307;DHT22;17935;51.120;13.132;2024-01-16T11:13:43;5.00;81.10
31307;DHT22;17935;51.120;13.132;2024-01-16T11:16:12;5.00;81.50
31307;DHT22;17935;51.120;13.132;2024-01-16T11:18:38;4.90;81.00
31307;DHT22;17935;51.120;13.132;2024-01-16T11:21:05;4.70;82.10
31307;DHT22;17935;51.120;13.132;2024-01-16T11:23:31;4.70;82.50
31307;DHT22;17935;51.120;13.132;2024-01-16T11:25:56;4.60;81.70
31307;DHT22;17935;51.120;13.132;2024-01-16T11:28:26;4.50;82.80
31307;DHT22;17935;51.120;13.132;2024-01-16T11:30:52;4.40;82.60
31307;DHT22;17935;51.120;13.132;2024-01-16T11:35:58;4.30;83.40
31307;DHT22;17935;51.120;13.132;2024-01-16T11:38:24;4.30;83.80
31307;DHT22;17935;51.120;13.132;2024-01-16T11:40:52;4.30;83.80
31307;DHT22;17935;51.120;13.132;2024-01-16T11:46:03;4.50;82.60
31307;DHT22;17935;51.120;13.132;2024-01-16T11:48:30;4.50;82.70
31307;DHT22;17935;51.120;13.132;2024-01-16T11:50:55;4.70;81.30
31307;DHT22;17935;51.120;13.132;2024-01-16T11:59:14;4.80;80.60
31307;DHT22;17935;51.120;13.132;2024-01-16T12:01:30;4.80;81.10
31307;DHT22;17935;51.120;13.132;2024-01-16T12:04:03;4.60;80.40
31307;DHT22;17935;51.120;13.132;2024-01-16T12:06:28;4.40;80.90
31307;DHT22;17935;51.120;13.132;2024-01-16T12:09:36;4.10;81.30
31307;DHT22;17935;51.120;13.132;2024-01-16T12:11:59;4.00;82.00
31307;DHT22;17935;51.120;13.132;2024-01-16T12:14:32;3.90;82.50
31307;DHT22;17935;51.120;13.132;2024-01-16T13:14:45;4.10;82.10
31307;DHT22;17935;51.120;13.132;2024-01-16T13:17:10;4.20;80.80
31307;DHT22;17935;51.120;13.132;2024-01-16T13:19:36;4.20;81.30
31307;DHT22;17935;51.120;13.132;2024-01-16T13:22:01;4.20;80.90
31307;DHT22;17935;51.120;13.132;2024-01-16T13:24:30;4.20;80.70
31307;DHT22;17935;51.120;13.132;2024-01-16T13:26:59;4.20;80.90
31307;DHT22;17935;51.120;13.132;2024-01-16T13:29:24;4.30;80.60
31307;DHT22;17935;51.120;13.132;2024-01-16T13:31:52;4.40;80.00
31307;DHT22;17935;51.120;13.132;2024-01-16T13:37:33;4.50;79.70
31307;DHT22;17935;51.120;13.132;2024-01-16T13:40:02;4.70;78.90
31307;DHT22;17935;51.120;13.132;2024-01-16T13:42:31;4.80;78.40
31307;DHT22;17935;51.120;13.132;2024-01-16T13:44:57;4.90;78.40
31307;DHT22;17935;51.120;13.132;2024-01-16T13:47:23;4.90;78.10
31307;DHT22;17935;51.120;13.132;2024-01-16T13:49:48;5.00;77.90
31307;DHT22;17935;51.120;13.132;2024-01-16T13:52:14;4.90;77.40
31307;DHT22;17935;51.120;13.132;2024-01-16T13:54:42;4.60;78.10
31307;DHT22;17935;51.120;13.132;2024-01-16T13:57:11;4.60;78.60
31307;DHT22;17935;51.120;13.132;2024-01-16T13:59:39;4.70;78.10
31307;DHT22;17935;51.120;13.132;2024-01-16T14:02:08;4.70;78.20
31307;DHT22;17935;51.120;13.132;2024-01-16T14:04:37;4.90;77.90
31307;DHT22;17935;51.120;13.132;2024-01-16T14:07:03;5.00;77.40
31307;DHT22;17935;51.120;13.132;2024-01-16T14:09:34;5.10;78.20
31307;DHT22;17935;51.120;13.132;2024-01-16T14:12:03;5.20;77.90
31307;DHT22;17935;51.120;13.132;2024-01-16T14:14:29;5.10;77.50
31307;DHT22;17935;51.120;13.132;2024-01-16T14:16:54;4.90;77.20
31307;DHT22;17935;51.120;13.132;2024-01-16T14:19:20;4.70;77.70
31307;DHT22;17935;51.120;13.132;2024-01-16T14:21:56;4.50;77.80
31307;DHT22;17935;51.120;13.132;2024-01-16T14:24:24;4.30;78.00
31307;DHT22;17935;51.120;13.132;2024-01-16T14:26:53;4.10;78.70
31307;DHT22;17935;51.120;13.132;2024-01-16T14:29:18;3.90;80.10
31307;DHT22;17935;51.120;13.132;2024-01-16T14:31:44;3.80;80.00
31307;DHT22;17935;51.120;13.132;2024-01-16T14:34:26;3.70;80.50
31307;DHT22;17935;51.120;13.132;2024-01-16T14:36:53;3.60;80.60
31307;DHT22;17935;51.120;13.132;2024-01-16T14:39:22;3.40;81.00
31307;DHT22;17935;51.120;13.132;2024-01-16T14:42:01;3.20;81.40
31307;DHT22;17935;51.120;13.132;2024-01-16T14:44:37;3.10;82.50
31307;DHT22;17935;51.120;13.132;2024-01-16T14:47:03;2.90;83.00
31307;DHT22;17935;51.120;13.132;2024-01-16T14:49:30;2.60;83.40
31307;DHT22;17935;51.120;13.132;2024-01-16T14:51:57;2.50;84.30
31307;DHT22;17935;51.120;13.132;2024-01-16T14:54:32;2.30;85.00
31307;DHT22;17935;51.120;13.132;2024-01-16T14:57:01;2.20;85.50
31307;DHT22;17935;51.120;13.132;2024-01-16T14:59:29;2.20;85.90
31307;DHT22;17935;51.120;13.132;2024-01-16T15:02:03;2.10;86.10
31307;DHT22;17935;51.120;13.132;2024-01-16T15:04:41;2.00;86.40
31307;DHT22;17935;51.120;13.132;2024-01-16T15:07:22;2.00;87.80
31307;DHT22;17935;51.120;13.132;2024-01-16T16:28:39;1.00;95.40
31307;DHT22;17935;51.120;13.132;2024-01-16T16:31:12;1.00;95.90
31307;DHT22;17935;51.120;13.132;2024-01-16T16:33:46;1.00;96.60
31307;DHT22;17935;51.120;13.132;2024-01-16T16:36:18;1.00;96.70
31307;DHT22;17935;51.120;13.132;2024-01-16T16:38:52;1.00;97.00
31307;DHT22;17935;51.120;13.132;2024-01-16T16:41:27;1.00;97.20
31307;DHT22;17935;51.120;13.132;2024-01-16T16:43:53;1.00;97.30
31307;DHT22;17935;51.120;13.132;2024-01-16T16:46:19;1.00;97.10
31307;DHT22;17935;51.120;13.132;2024-01-16T16:48:45;1.00;97.20
31307;DHT22;17935;51.120;13.132;2024-01-16T16:51:26;1.10;97.30
31307;DHT22;17935;51.120;13.132;2024-01-16T16:53:52;1.10;97.20
31307;DHT22;17935;51.120;13.132;2024-01-16T16:56:20;1.10;97.40
31307;DHT22;17935;51.120;13.132;2024-01-16T16:58:51;1.10;97.10
31307;DHT22;17935;51.120;13.132;2024-01-16T17:01:20;1.20;97.10
31307;DHT22;17935;51.120;13.132;2024-01-16T17:03:46;1.10;97.40
31307;DHT22;17935;51.120;13.132;2024-01-16T17:06:14;1.10;97.60
31307;DHT22;17935;51.120;13.132;2024-01-16T17:08:40;1.20;97.70
31307;DHT22;17935;51.120;13.132;2024-01-16T17:14:11;1.20;97.60
31307;DHT22;17935;51.120;13.132;2024-01-16T17:16:46;1.20;98.00
31307;DHT22;17935;51.120;13.132;2024-01-16T17:19:12;1.10;98.00
31307;DHT22;17935;51.120;13.132;2024-01-16T17:21:58;0.90;98.50
31307;DHT22;17935;51.120;13.132;2024-01-16T19:24:03;-1.30;99.90
31307;DHT22;17935;51.120;13.132;2024-01-16T19:26:29;-1.40;99.90
31307;DHT22;17935;51.120;13.132;2024-01-16T19:28:55;-1.60;99.90
31307;DHT22;17935;51.120;13.132;2024-01-16T19:31:21;-1.70;99.90
31307;DHT22;17935;51.120;13.132;2024-01-16T19:33:46;-1.70;99.90
31307;DHT22;17935;51.120;13.132;2024-01-16T19:36:14;-1.80;99.90
31307;DHT22;17935;51.120;13.132;2024-01-16T19:38:40;-2.00;99.90
31307;DHT22;17935;51.120;13.132;2024-01-16T19:41:11;-2.10;99.90
31307;DHT22;17935;51.120;13.132;2024-01-16T19:43:42;-2.10;99.90
31307;DHT22;17935;51.120;13.132;2024-01-16T19:46:15;-2.20;99.90
31307;DHT22;17935;51.120;13.132;2024-01-16T19:48:46;-2.30;99.90
31307;DHT22;17935;51.120;13.132;2024-01-16T19:54:09;-2.40;99.90
31307;DHT22;17935;51.120;13.132;2024-01-16T19:56:36;-2.50;99.90
31307;DHT22;17935;51.120;13.132;2024-01-16T19:59:04;-2.60;99.90
31307;DHT22;17935;51.120;13.132;2024-01-16T20:01:30;-2.60;99.90
31307;DHT22;17935;51.120;13.132;2024-01-16T20:04:01;-2.60;99.90
31307;DHT22;17935;51.120;13.132;2024-01-16T20:06:27;-2.70;99.90
31307;DHT22;17935;51.120;13.132;2024-01-16T20:09:01;-2.70;99.90
31307;DHT22;17935;51.120;13.132;2024-01-16T20:11:31;-2.70;99.90
31307;DHT22;17935;51.120;13.132;2024-01-16T20:13:58;-2.70;99.90
31307;DHT22;17935;51.120;13.132;2024-01-16T20:16:24;-2.70;99.90
31307;DHT22;17935;51.120;13.132;2024-01-16T20:18:55;-2.70;99.90
31307;DHT22;17935;51.120;13.132;2024-01-16T20:21:21;-2.70;99.90
31307;DHT22;17935;51.120;13.132;2024-01-16T20:23:47;-2.70;99.90
31307;DHT22;17935;51.120;13.132;2024-01-16T20:26:16;-2.70;99.90
31307;DHT22;17935;51.120;13.132;2024-01-16T20:28:48;-2.70;99.90
31307;DHT22;17935;51.120;13.132;2024-01-16T20:31:16;-2.70;99.90
31307;DHT22;17935;51.120;13.132;2024-01-16T20:33:45;-2.80;99.90
31307;DHT22;17935;51.120;13.132;2024-01-16T20:36:19;-2.80;99.90
31307;DHT22;17935;51.120;13.132;2024-01-16T20:41:28;-2.90;99.90
31307;DHT22;17935;51.120;13.132;2024-01-16T20:43:57;-2.90;99.90
31307;DHT22;17935;51.120;13.132;2024-01-16T20:46:25;-2.90;99.90
31307;DHT22;17935;51.120;13.132;2024-01-16T20:48:55;-2.80;99.90
31307;DHT22;17935;51.120;13.132;2024-01-16T20:51:21;-2.70;99.90
31307;DHT22;17935;51.120;13.132;2024-01-16T20:53:47;-2.70;99.90
31307;DHT22;17935;51.120;13.132;2024-01-16T20:56:20;-2.70;99.90
31307;DHT22;17935;51.120;13.132;2024-01-16T20:58:49;-2.70;99.90
31307;DHT22;17935;51.120;13.132;2024-01-16T21:01:14;-2.60;99.90
31307;DHT22;17935;51.120;13.132;2024-01-16T21:03:42;-2.60;99.90
31307;DHT22;17935;51.120;13.132;2024-01-16T21:06:12;-2.50;99.90
31307;DHT22;17935;51.120;13.132;2024-01-16T21:08:37;-2.50;99.90
31307;DHT22;17935;51.120;13.132;2024-01-16T21:11:05;-2.40;99.90
31307;DHT22;17935;51.120;13.132;2024-01-16T21:13:31;-2.30;99.90
31307;DHT22;17935;51.120;13.132;2024-01-16T21:15:56;-2.20;99.90
31307;DHT22;17935;51.120;13.132;2024-01-16T21:18:29;-2.10;99.90
31307;DHT22;17935;51.120;13.132;2024-01-16T21:21:04;-2.00;99.90
31307;DHT22;17935;51.120;13.132;2024-01-16T21:23:33;-2.00;99.90
31307;DHT22;17935;51.120;13.132;2024-01-16T21:25:58;-2.00;99.90
31307;DHT22;17935;51.120;13.132;2024-01-16T21:28:40;-2.10;99.90
31307;DHT22;17935;51.120;13.132;2024-01-16T21:31:15;-2.10;99.90
31307;DHT22;17935;51.120;13.132;2024-01-16T21:33:54;-2.20;99.90
31307;DHT22;17935;51.120;13.132;2024-01-16T21:36:31;-2.20;99.90
31307;DHT22;17935;51.120;13.132;2024-01-16T21:39:20;-2.20;99.90
31307;DHT22;17935;51.120;13.132;2024-01-16T21:41:48;-2.20;99.90
31307;DHT22;17935;51.120;13.132;2024-01-16T21:44:20;-2.10;99.90
31307;DHT22;17935;51.120;13.132;2024-01-16T21:46:54;-2.00;99.90
31307;DHT22;17935;51.120;13.132;2024-01-16T21:49:29;-1.90;99.90
31307;DHT22;17935;51.120;13.132;2024-01-16T21:52:03;-1.80;99.90
31307;DHT22;17935;51.120;13.132;2024-01-16T21:54:32;-1.80;99.90
31307;DHT22;17935;51.120;13.132;2024-01-16T21:56:58;-1.80;99.90